Time;durP1;ratioP1;P1;durP2;ratioP2;P2;SDS_P1;SDS_P2;PMS_P1;PMS_P2;Temp;Humidity;BMP_temperature;BMP_pressure;BME280_temperature;BME280_humidity;BME280_pressure;Samples;Min_cycle;Max_cycle;Signal;HPM_P1;HPM_P2
2023/07/17 00:00:17;;;;;;;13.98;12.57;;;;;;;;;;4406596;32;318852;-85
2023/07/17 00:02:45;;;;;;;14.45;12.63;;;;;;;;;;4416861;32;318808;-80
2023/07/17 00:05:12;;;;;;;19.80;12.80;;;;;;;;;;4403094;32;318893;-81
2023/07/17 00:07:42;;;;;;;17.30;12.40;;;;;;;;;;4416873;32;319013;-85
2023/07/17 00:10:10;;;;;;;20.37;13.30;;;;;;;;;;4416829;32;318805;-86
2023/07/17 00:12:37;;;;;;;13.10;11.52;;;;;;;;;;4401368;32;418121;-84
2023/07/17 00:15:06;;;;;;;18.20;13.15;;;;;;;;;;4416918;32;318659;-85
2023/07/17 00:17:34;;;;;;;20.70;12.02;;;;;;;;;;4405749;32;318846;-81
2023/07/17 00:20:02;;;;;;;18.75;11.63;;;;;;;;;;4415555;32;318903;-86
2023/07/17 00:22:30;;;;;;;18.25;12.57;;;;;;;;;;4405704;32;318843;-84
2023/07/17 00:24:59;;;;;;;14.68;11.60;;;;;;;;;;4415524;32;318936;-85
2023/07/17 00:27:26;;;;;;;17.13;13.07;;;;;;;;;;4403163;32;318886;-85
2023/07/17 00:29:54;;;;;;;18.65;14.57;;;;;;;;;;4416493;32;318597;-80
2023/07/17 00:32:21;;;;;;;14.45;12.93;;;;;;;;;;4404674;32;341058;-85
2023/07/17 00:34:49;;;;;;;20.70;13.05;;;;;;;;;;4416690;32;318749;-85
2023/07/17 00:37:16;;;;;;;19.15;12.30;;;;;;;;;;4405209;32;368445;-83
2023/07/17 00:39:44;;;;;;;21.87;12.52;;;;;;;;;;4416519;32;318669;-79
2023/07/17 00:42:13;;;;;;;16.33;12.00;;;;;;;;;;4415830;32;318931;-85
2023/07/17 00:44:40;;;;;;;22.62;13.30;;;;;;;;;;4403406;32;418126;-84
2023/07/17 00:47:10;;;;;;;22.58;13.15;;;;;;;;;;4414560;32;321028;-80
2023/07/17 00:49:37;;;;;;;19.50;12.77;;;;;;;;;;4403517;32;419052;-85
2023/07/17 00:52:06;;;;;;;18.85;12.00;;;;;;;;;;4414722;32;318832;-80
2023/07/17 00:54:35;;;;;;;26.58;12.18;;;;;;;;;;4405164;32;318883;-85
2023/07/17 00:57:05;;;;;;;15.30;12.77;;;;;;;;;;4414787;32;318946;-82
2023/07/17 00:59:34;;;;;;;25.10;13.62;;;;;;;;;;4406064;32;318853;-83
2023/07/17 01:02:02;;;;;;;21.50;13.05;;;;;;;;;;4414917;32;318937;-84
2023/07/17 01:04:30;;;;;;;16.85;12.77;;;;;;;;;;4405737;32;318914;-83
2023/07/17 01:06:57;;;;;;;16.85;13.13;;;;;;;;;;4414995;32;319033;-84
2023/07/17 01:09:25;;;;;;;19.62;13.40;;;;;;;;;;4403718;32;319031;-85
2023/07/17 01:11:52;;;;;;;16.08;13.07;;;;;;;;;;4418959;32;335509;-82
2023/07/17 01:14:20;;;;;;;18.48;13.27;;;;;;;;;;4408253;32;319063;-85
2023/07/17 01:16:50;;;;;;;14.32;12.82;;;;;;;;;;4417796;32;319314;-84
2023/07/17 01:19:17;;;;;;;16.83;12.15;;;;;;;;;;4407128;32;343973;-85
2023/07/17 01:21:50;;;;;;;19.35;13.15;;;;;;;;;;4417579;32;319066;-84
2023/07/17 01:24:19;;;;;;;14.02;12.45;;;;;;;;;;4405394;32;319119;-82
2023/07/17 01:26:47;;;;;;;13.55;12.15;;;;;;;;;;4418367;32;319075;-87
2023/07/17 01:29:14;;;;;;;17.02;13.50;;;;;;;;;;4407861;32;318949;-85
2023/07/17 01:31:42;;;;;;;21.70;12.95;;;;;;;;;;4419014;32;318712;-81
2023/07/17 01:34:10;;;;;;;16.33;12.45;;;;;;;;;;4417186;32;318953;-85
2023/07/17 01:36:37;;;;;;;18.67;13.73;;;;;;;;;;4404579;32;417712;-79
2023/07/17 01:39:04;;;;;;;18.67;13.43;;;;;;;;;;4417499;32;319069;-79
2023/07/17 01:41:34;;;;;;;14.13;12.10;;;;;;;;;;4407669;32;318948;-84
2023/07/17 01:44:01;;;;;;;19.92;12.98;;;;;;;;;;4418279;32;319043;-82
2023/07/17 01:46:28;;;;;;;17.10;13.35;;;;;;;;;;4407112;32;318922;-82
2023/07/17 01:48:56;;;;;;;22.52;13.20;;;;;;;;;;4418662;32;318983;-86
2023/07/17 01:51:23;;;;;;;14.50;12.27;;;;;;;;;;4406726;32;318841;-83
2023/07/17 01:53:51;;;;;;;17.10;11.80;;;;;;;;;;4418747;32;319033;-80
2023/07/17 01:56:18;;;;;;;19.87;13.68;;;;;;;;;;4407912;32;319307;-84
2023/07/17 01:58:47;;;;;;;14.68;12.57;;;;;;;;;;4417895;32;319101;-83
2023/07/17 02:01:15;;;;;;;25.92;12.75;;;;;;;;;;4404824;32;318780;-79
2023/07/17 02:03:42;;;;;;;16.87;11.90;;;;;;;;;;4418085;32;318920;-84
2023/07/17 02:06:09;;;;;;;18.80;12.32;;;;;;;;;;4415787;32;318932;-86
2023/07/17 02:08:37;;;;;;;16.02;13.07;;;;;;;;;;4404405;32;418089;-79
2023/07/17 02:11:04;;;;;;;20.02;13.60;;;;;;;;;;4418409;32;319022;-80
2023/07/17 02:13:32;;;;;;;13.75;11.55;;;;;;;;;;4407996;32;318810;-84
2023/07/17 02:16:01;;;;;;;16.55;12.75;;;;;;;;;;4418405;32;318959;-79
2023/07/17 02:18:30;;;;;;;19.07;11.87;;;;;;;;;;4406590;32;342981;-80
2023/07/17 02:20:57;;;;;;;21.73;13.48;;;;;;;;;;4417124;32;319081;-84
2023/07/17 02:23:25;;;;;;;13.80;12.18;;;;;;;;;;4406956;32;319009;-78
2023/07/17 02:25:52;;;;;;;15.85;12.48;;;;;;;;;;4417793;32;332253;-79
2023/07/17 02:28:20;;;;;;;17.85;12.80;;;;;;;;;;4405948;32;319121;-79
2023/07/17 02:30:47;;;;;;;18.95;12.77;;;;;;;;;;4418040;32;318903;-83
2023/07/17 02:33:16;;;;;;;19.05;13.50;;;;;;;;;;4405621;32;318748;-79
2023/07/17 02:35:44;;;;;;;15.07;13.45;;;;;;;;;;4415656;32;318869;-79
2023/07/17 02:38:11;;;;;;;23.42;13.10;;;;;;;;;;4418282;32;319006;-84
2023/07/17 02:40:39;;;;;;;16.67;14.23;;;;;;;;;;4401832;32;418100;-83
2023/07/17 02:43:07;;;;;;;15.75;12.35;;;;;;;;;;4417988;32;319138;-84
2023/07/17 02:45:35;;;;;;;17.98;13.30;;;;;;;;;;4407213;32;318881;-79
2023/07/17 02:48:03;;;;;;;15.50;12.93;;;;;;;;;;4403492;32;318934;-84
2023/07/17 02:50:32;;;;;;;18.60;14.02;;;;;;;;;;4416676;32;318869;-79
2023/07/17 02:53:00;;;;;;;18.65;14.30;;;;;;;;;;4406997;32;328623;-81
2023/07/17 02:55:27;;;;;;;24.05;14.50;;;;;;;;;;4416756;32;319013;-84
2023/07/17 02:57:55;;;;;;;22.08;14.15;;;;;;;;;;4407141;32;319205;-84
2023/07/17 03:00:22;;;;;;;18.50;13.98;;;;;;;;;;4416545;32;318771;-83
2023/07/17 03:02:50;;;;;;;17.00;13.20;;;;;;;;;;4406139;32;353061;-79
2023/07/17 03:05:17;;;;;;;16.08;13.75;;;;;;;;;;4416548;32;318856;-80
2023/07/17 03:07:47;;;;;;;22.90;14.38;;;;;;;;;;4406651;32;318963;-82
2023/07/17 03:10:15;;;;;;;21.45;13.85;;;;;;;;;;4416039;32;318964;-79
2023/07/17 03:12:43;;;;;;;19.77;14.15;;;;;;;;;;4405819;32;318731;-85
2023/07/17 03:15:11;;;;;;;16.85;13.55;;;;;;;;;;4417433;32;318904;-85
2023/07/17 03:17:38;;;;;;;15.88;13.45;;;;;;;;;;4407169;32;318615;-80
2023/07/17 03:20:08;;;;;;;18.37;14.13;;;;;;;;;;4416864;32;318851;-79
2023/07/17 03:22:36;;;;;;;14.15;12.50;;;;;;;;;;4416119;32;319130;-85
2023/07/17 03:25:06;;;;;;;16.17;13.10;;;;;;;;;;4403110;32;418273;-83
2023/07/17 03:27:34;;;;;;;15.88;12.88;;;;;;;;;;4416433;32;319089;-80
2023/07/17 03:30:02;;;;;;;18.30;13.88;;;;;;;;;;4406275;32;322002;-85
2023/07/17 03:32:33;;;;;;;15.63;14.00;;;;;;;;;;4416442;32;318919;-82
2023/07/17 03:35:01;;;;;;;17.42;13.85;;;;;;;;;;4407111;32;319085;-84
2023/07/17 03:37:28;;;;;;;26.33;13.43;;;;;;;;;;4415623;32;319204;-84
2023/07/17 03:39:55;;;;;;;20.75;13.13;;;;;;;;;;4406585;32;319270;-84
2023/07/17 03:42:24;;;;;;;19.70;13.27;;;;;;;;;;4415751;32;318750;-80
2023/07/17 03:44:52;;;;;;;15.32;13.50;;;;;;;;;;4405424;32;348504;-84
2023/07/17 03:47:19;;;;;;;19.20;13.98;;;;;;;;;;4417198;32;318703;-85
2023/07/17 03:49:47;;;;;;;18.35;14.02;;;;;;;;;;4405919;32;318758;-83
2023/07/17 03:52:15;;;;;;;20.62;13.35;;;;;;;;;;4416957;32;318895;-84
2023/07/17 03:54:42;;;;;;;15.13;12.32;;;;;;;;;;4406761;32;318579;-84
2023/07/17 03:57:10;;;;;;;22.73;14.13;;;;;;;;;;4415406;32;357988;-79
2023/07/17 03:59:52;;;;;;;19.67;14.07;;;;;;;;;;4407826;32;318858;-82
2023/07/17 04:02:19;;;;;;;15.57;13.65;;;;;;;;;;4416318;32;318899;-85
2023/07/17 04:04:47;;;;;;;19.10;14.35;;;;;;;;;;4405559;32;318948;-85
2023/07/17 04:07:15;;;;;;;17.23;14.23;;;;;;;;;;4416486;32;318998;-79
2023/07/17 04:09:42;;;;;;;16.83;12.82;;;;;;;;;;4403993;32;318732;-85
2023/07/17 04:12:11;;;;;;;15.50;13.90;;;;;;;;;;4415504;32;318749;-79
2023/07/17 04:14:38;;;;;;;13.93;12.37;;;;;;;;;;4405285;32;318765;-79
2023/07/17 04:17:07;;;;;;;15.65;13.55;;;;;;;;;;4416157;32;318837;-79
2023/07/17 04:19:35;;;;;;;23.52;14.43;;;;;;;;;;4416975;32;318897;-79
2023/07/17 04:22:02;;;;;;;18.65;13.52;;;;;;;;;;4401872;32;418194;-79
2023/07/17 04:24:30;;;;;;;16.12;13.75;;;;;;;;;;4416758;32;318754;-79
2023/07/17 04:26:57;;;;;;;21.95;15.27;;;;;;;;;;4405169;32;318938;-79
2023/07/17 04:29:25;;;;;;;22.62;15.25;;;;;;;;;;4416665;32;318642;-81
2023/07/17 04:31:52;;;;;;;26.87;14.40;;;;;;;;;;4403770;32;319127;-78
2023/07/17 04:34:21;;;;;;;22.05;15.15;;;;;;;;;;4416610;32;318649;-79
2023/07/17 04:36:48;;;;;;;25.92;14.70;;;;;;;;;;4405870;32;318677;-79
2023/07/17 04:39:16;;;;;;;20.12;14.65;;;;;;;;;;4415775;32;318978;-79
2023/07/17 04:41:43;;;;;;;18.80;15.05;;;;;;;;;;4405354;32;319089;-79
2023/07/17 04:44:11;;;;;;;21.48;15.98;;;;;;;;;;4417428;32;319023;-79
2023/07/17 04:46:38;;;;;;;21.65;15.50;;;;;;;;;;4409239;32;318898;-79
2023/07/17 04:49:06;;;;;;;21.17;14.38;;;;;;;;;;4419481;32;318826;-79
2023/07/17 04:51:36;;;;;;;20.73;14.55;;;;;;;;;;4416868;32;318569;-79
2023/07/17 04:54:03;;;;;;;23.58;15.45;;;;;;;;;;4397380;32;418083;-79
2023/07/17 04:56:31;;;;;;;20.95;15.30;;;;;;;;;;4418903;32;318922;-79
2023/07/17 04:58:59;;;;;;;31.00;16.33;;;;;;;;;;4407186;32;318889;-79
2023/07/17 05:01:26;;;;;;;30.55;17.42;;;;;;;;;;4416752;32;318903;-79
2023/07/17 05:03:53;;;;;;;22.87;16.80;;;;;;;;;;4409313;32;318819;-78
2023/07/17 05:06:21;;;;;;;18.77;16.77;;;;;;;;;;4417322;32;350689;-79
2023/07/17 05:08:50;;;;;;;24.75;15.95;;;;;;;;;;4408308;32;318836;-79
2023/07/17 05:11:17;;;;;;;22.77;16.12;;;;;;;;;;4416656;32;318998;-79
2023/07/17 05:13:44;;;;;;;22.60;15.32;;;;;;;;;;4408045;32;319051;-79
2023/07/17 05:16:12;;;;;;;18.92;16.10;;;;;;;;;;4416870;32;346433;-79
2023/07/17 05:18:39;;;;;;;23.30;16.50;;;;;;;;;;4408612;32;318885;-79
2023/07/17 05:21:07;;;;;;;22.33;16.55;;;;;;;;;;4417551;32;335606;-79
2023/07/17 05:23:34;;;;;;;23.67;17.27;;;;;;;;;;4417838;32;318800;-79
2023/07/17 05:26:03;;;;;;;20.08;17.67;;;;;;;;;;4408327;32;319055;-79
2023/07/17 05:28:31;;;;;;;19.50;15.63;;;;;;;;;;4419164;32;318707;-79
2023/07/17 05:30:58;;;;;;;22.00;17.12;;;;;;;;;;4406782;32;318972;-79
2023/07/17 05:33:26;;;;;;;22.45;15.00;;;;;;;;;;4418878;32;319153;-79
2023/07/17 05:35:54;;;;;;;27.23;16.15;;;;;;;;;;4407350;32;331565;-79
2023/07/17 05:38:21;;;;;;;22.98;16.00;;;;;;;;;;4418997;32;318832;-79
2023/07/17 05:40:49;;;;;;;25.42;15.20;;;;;;;;;;4408497;32;318943;-79
2023/07/17 05:43:19;;;;;;;17.35;15.25;;;;;;;;;;4417730;32;318976;-79
2023/07/17 05:45:47;;;;;;;24.60;17.20;;;;;;;;;;4408069;32;318824;-79
2023/07/17 05:48:15;;;;;;;25.45;18.50;;;;;;;;;;4418024;32;318837;-79
2023/07/17 05:50:43;;;;;;;27.58;18.12;;;;;;;;;;4407711;32;318718;-79
2023/07/17 05:53:10;;;;;;;26.92;17.25;;;;;;;;;;4418332;32;318773;-79
2023/07/17 05:55:38;;;;;;;21.62;16.77;;;;;;;;;;4407240;32;318724;-80
2023/07/17 05:58:05;;;;;;;24.12;17.42;;;;;;;;;;4416602;32;318955;-79
2023/07/17 06:00:34;;;;;;;27.33;17.10;;;;;;;;;;4416108;32;318714;-81
2023/07/17 06:03:02;;;;;;;22.40;17.17;;;;;;;;;;4407735;32;318934;-79
2023/07/17 06:05:29;;;;;;;26.65;18.80;;;;;;;;;;4416896;32;319053;-79
2023/07/17 06:07:57;;;;;;;25.50;18.00;;;;;;;;;;4407420;32;318698;-80
2023/07/17 06:10:25;;;;;;;22.52;18.35;;;;;;;;;;4417479;32;318732;-79
2023/07/17 06:12:52;;;;;;;29.52;18.10;;;;;;;;;;4406785;32;318858;-79
2023/07/17 06:15:20;;;;;;;24.85;17.12;;;;;;;;;;4417885;32;318914;-79
2023/07/17 06:17:49;;;;;;;25.15;17.20;;;;;;;;;;4407074;32;318862;-79
2023/07/17 06:20:17;;;;;;;28.58;18.50;;;;;;;;;;4415541;32;319051;-83
2023/07/17 06:22:44;;;;;;;22.92;17.55;;;;;;;;;;4406393;32;318815;-79
2023/07/17 06:25:12;;;;;;;21.67;15.82;;;;;;;;;;4416530;32;334345;-79
2023/07/17 06:27:40;;;;;;;23.75;17.52;;;;;;;;;;4406094;32;318774;-80
2023/07/17 06:30:10;;;;;;;31.00;17.70;;;;;;;;;;4416707;32;318921;-78
2023/07/17 06:32:38;;;;;;;20.10;17.95;;;;;;;;;;4410166;32;319443;-80
2023/07/17 06:35:07;;;;;;;21.73;17.48;;;;;;;;;;4416491;32;318763;-79
2023/07/17 06:37:35;;;;;;;22.73;17.35;;;;;;;;;;4418014;32;318727;-79
2023/07/17 06:40:05;;;;;;;29.58;15.63;;;;;;;;;;4403964;32;419729;-80
2023/07/17 06:42:33;;;;;;;18.87;16.85;;;;;;;;;;4409025;32;348150;-84
2023/07/17 06:45:00;;;;;;;24.80;17.75;;;;;;;;;;4405570;32;327086;-79
2023/07/17 06:47:28;;;;;;;31.70;17.85;;;;;;;;;;4417360;32;319153;-79
2023/07/17 06:49:55;;;;;;;34.50;18.27;;;;;;;;;;4404785;32;318844;-79
2023/07/17 06:52:24;;;;;;;27.08;16.23;;;;;;;;;;4417457;32;318842;-79
2023/07/17 06:54:51;;;;;;;25.58;16.80;;;;;;;;;;4406873;32;318863;-80
2023/07/17 06:57:19;;;;;;;24.35;16.23;;;;;;;;;;4417944;32;318873;-79
2023/07/17 06:59:46;;;;;;;19.98;16.85;;;;;;;;;;4403811;32;319029;-85
2023/07/17 07:02:14;;;;;;;17.52;15.52;;;;;;;;;;4416411;32;318797;-79
2023/07/17 07:04:42;;;;;;;18.70;15.75;;;;;;;;;;4406954;32;318888;-79
2023/07/17 07:07:09;;;;;;;18.67;15.48;;;;;;;;;;4415941;32;319034;-79
2023/07/17 07:09:38;;;;;;;20.08;14.50;;;;;;;;;;4417757;32;318050;-80
2023/07/17 07:12:06;;;;;;;25.15;15.82;;;;;;;;;;4404392;32;418290;-79
2023/07/17 07:14:34;;;;;;;20.08;16.20;;;;;;;;;;4417657;32;318821;-79
2023/07/17 07:17:02;;;;;;;22.23;16.25;;;;;;;;;;4406559;32;319003;-79
2023/07/17 07:19:29;;;;;;;21.83;15.82;;;;;;;;;;4417533;32;318988;-80
2023/07/17 07:21:57;;;;;;;21.95;15.35;;;;;;;;;;4405809;32;318862;-80
2023/07/17 07:24:24;;;;;;;18.73;15.23;;;;;;;;;;4415880;32;318889;-79
2023/07/17 07:26:53;;;;;;;28.08;15.57;;;;;;;;;;4403798;32;318747;-79
2023/07/17 07:29:20;;;;;;;25.17;14.95;;;;;;;;;;4417336;32;318850;-79
2023/07/17 07:31:48;;;;;;;16.98;15.23;;;;;;;;;;4406822;32;318979;-79
2023/07/17 07:34:15;;;;;;;17.83;16.00;;;;;;;;;;4415144;32;319165;-80
2023/07/17 07:36:43;;;;;;;23.02;15.60;;;;;;;;;;4405411;32;318957;-80
2023/07/17 07:39:11;;;;;;;24.65;16.12;;;;;;;;;;4416260;32;318776;-80
2023/07/17 07:41:38;;;;;;;27.73;16.23;;;;;;;;;;4403788;32;382285;-81
2023/07/17 07:44:08;;;;;;;22.25;14.95;;;;;;;;;;4417074;32;319390;-80
2023/07/17 07:46:35;;;;;;;20.25;15.70;;;;;;;;;;4416755;32;318843;-80
2023/07/17 07:49:03;;;;;;;26.65;17.00;;;;;;;;;;4391945;32;389027;-80
2023/07/17 07:51:31;;;;;;;25.75;16.02;;;;;;;;;;4413927;32;318986;-79
2023/07/17 07:53:58;;;;;;;23.17;15.95;;;;;;;;;;4405725;32;318731;-79
2023/07/17 07:56:26;;;;;;;24.55;15.95;;;;;;;;;;4416846;32;318995;-79
2023/07/17 07:58:53;;;;;;;18.27;14.90;;;;;;;;;;4404701;32;319003;-79
2023/07/17 08:01:22;;;;;;;17.20;13.40;;;;;;;;;;4416763;32;318756;-86
2023/07/17 08:03:49;;;;;;;17.45;15.40;;;;;;;;;;4405719;32;318715;-79
2023/07/17 08:06:17;;;;;;;21.27;15.52;;;;;;;;;;4416196;32;318857;-80
2023/07/17 08:08:44;;;;;;;17.12;15.32;;;;;;;;;;4405756;32;319036;-80
2023/07/17 08:11:12;;;;;;;30.90;15.27;;;;;;;;;;4416358;32;318835;-79
2023/07/17 08:13:42;;;;;;;15.98;14.43;;;;;;;;;;4416663;32;318812;-83
2023/07/17 08:16:09;;;;;;;19.98;14.65;;;;;;;;;;4402354;32;417526;-80
2023/07/17 08:18:38;;;;;;;20.45;15.10;;;;;;;;;;4415585;32;318850;-80
2023/07/17 08:21:05;;;;;;;24.02;14.35;;;;;;;;;;4400848;32;421646;-81
2023/07/17 08:23:33;;;;;;;19.83;14.48;;;;;;;;;;4416997;32;319128;-86
2023/07/17 08:26:00;;;;;;;22.60;15.63;;;;;;;;;;4404667;32;318910;-85
2023/07/17 08:28:27;;;;;;;24.70;14.65;;;;;;;;;;4416793;32;318856;-86
2023/07/17 08:30:55;;;;;;;21.83;14.13;;;;;;;;;;4406422;32;318880;-80
2023/07/17 08:33:23;;;;;;;14.63;13.02;;;;;;;;;;4416832;32;319020;-85
2023/07/17 08:35:52;;;;;;;17.33;13.05;;;;;;;;;;4404346;32;318755;-80
2023/07/17 08:38:19;;;;;;;22.40;13.93;;;;;;;;;;4415593;32;318834;-80
2023/07/17 08:40:53;;;;;;;23.50;15.95;;;;;;;;;;4406035;32;318829;-80
2023/07/17 08:43:20;;;;;;;19.23;14.20;;;;;;;;;;4414804;32;327922;-80
2023/07/17 08:45:48;;;;;;;32.92;15.65;;;;;;;;;;4404039;32;319218;-86
2023/07/17 08:48:17;;;;;;;23.17;14.25;;;;;;;;;;4416545;32;318854;-81
2023/07/17 08:50:45;;;;;;;20.70;13.70;;;;;;;;;;4406061;32;318812;-80
2023/07/17 08:53:15;;;;;;;16.73;14.07;;;;;;;;;;4415715;32;318871;-84
2023/07/17 08:55:44;;;;;;;24.02;14.25;;;;;;;;;;4405814;32;319047;-86
2023/07/17 08:58:12;;;;;;;20.62;14.13;;;;;;;;;;4414965;32;319008;-83
2023/07/17 09:00:40;;;;;;;20.23;13.38;;;;;;;;;;4405848;32;318802;-81
2023/07/17 09:03:08;;;;;;;25.75;14.80;;;;;;;;;;4415409;32;318775;-85
2023/07/17 09:05:35;;;;;;;16.35;14.05;;;;;;;;;;4414826;32;318819;-81
2023/07/17 09:08:02;;;;;;;29.48;13.75;;;;;;;;;;4403218;32;418381;-85
2023/07/17 09:10:35;;;;;;;18.02;12.20;;;;;;;;;;4416250;32;318730;-85
2023/07/17 09:13:04;;;;;;;16.40;13.43;;;;;;;;;;4403381;32;417921;-80
2023/07/17 09:15:34;;;;;;;13.75;12.35;;;;;;;;;;4414726;32;319158;-80
2023/07/17 09:18:02;;;;;;;15.13;10.95;;;;;;;;;;4405083;32;318711;-80
2023/07/17 09:20:29;;;;;;;17.70;12.50;;;;;;;;;;4414778;32;330950;-80
2023/07/17 09:23:00;;;;;;;12.00;9.63;;;;;;;;;;4404457;32;319167;-81
2023/07/17 09:25:28;;;;;;;19.02;10.43;;;;;;;;;;4415143;32;317601;-80
2023/07/17 09:27:57;;;;;;;10.35;8.85;;;;;;;;;;4404847;32;318914;-81
2023/07/17 09:30:26;;;;;;;10.57;9.23;;;;;;;;;;4417150;32;317689;-80
2023/07/17 09:32:54;;;;;;;18.05;10.10;;;;;;;;;;4408391;32;317830;-81
2023/07/17 09:35:23;;;;;;;11.20;9.00;;;;;;;;;;4416989;32;349457;-80
2023/07/17 09:37:51;;;;;;;11.95;9.73;;;;;;;;;;4407973;32;317719;-80
2023/07/17 09:40:20;;;;;;;12.85;9.52;;;;;;;;;;4419000;32;317873;-81
2023/07/17 09:42:53;;;;;;;12.57;9.90;;;;;;;;;;4408108;32;317898;-81
2023/07/17 09:45:24;;;;;;;10.27;9.20;;;;;;;;;;4418849;32;317660;-81
2023/07/17 09:47:51;;;;;;;8.95;8.02;;;;;;;;;;4408066;32;327040;-81
2023/07/17 09:50:22;;;;;;;12.07;8.60;;;;;;;;;;4418160;32;316982;-81
2023/07/17 09:52:51;;;;;;;9.43;8.18;;;;;;;;;;4406034;32;318155;-80
2023/07/17 09:55:21;;;;;;;9.93;7.80;;;;;;;;;;4417772;32;316679;-80
2023/07/17 09:57:51;;;;;;;12.63;8.25;;;;;;;;;;4407728;32;316860;-80
2023/07/17 10:00:22;;;;;;;10.73;8.25;;;;;;;;;;4418787;32;317804;-80
2023/07/17 10:02:57;;;;;;;11.82;6.87;;;;;;;;;;4408471;32;317988;-80
2023/07/17 10:05:25;;;;;;;14.13;7.10;;;;;;;;;;4418317;32;317610;-80
2023/07/17 10:07:53;;;;;;;10.98;6.87;;;;;;;;;;4407425;32;317901;-80
2023/07/17 10:10:22;;;;;;;12.55;7.18;;;;;;;;;;4418336;32;317802;-80
2023/07/17 10:12:50;;;;;;;10.13;7.07;;;;;;;;;;4406092;32;326709;-81
2023/07/17 10:15:18;;;;;;;13.93;7.37;;;;;;;;;;4416331;32;356903;-81
2023/07/17 10:17:56;;;;;;;8.18;7.37;;;;;;;;;;4405412;32;317773;-80
2023/07/17 10:20:23;;;;;;;13.05;8.40;;;;;;;;;;4417649;32;316800;-80
2023/07/17 10:22:51;;;;;;;12.65;8.50;;;;;;;;;;4407392;32;317929;-80
2023/07/17 10:25:27;;;;;;;10.68;7.15;;;;;;;;;;4417239;32;318059;-83
2023/07/17 10:27:59;;;;;;;25.73;8.35;;;;;;;;;;4407786;32;318070;-81
2023/07/17 10:30:29;;;;;;;8.23;7.43;;;;;;;;;;4417379;32;318702;-81
2023/07/17 10:33:13;;;;;;;10.10;8.10;;;;;;;;;;4399424;32;337658;-81
2023/07/17 10:35:51;;;;;;;10.73;8.60;;;;;;;;;;4403358;32;326954;-81
2023/07/17 10:38:20;;;;;;;14.45;7.70;;;;;;;;;;4418108;32;317747;-80
2023/07/17 10:40:47;;;;;;;9.05;7.87;;;;;;;;;;4406671;32;318734;-80
2023/07/17 10:43:17;;;;;;;11.90;7.85;;;;;;;;;;4417541;32;317051;-81
2023/07/17 10:45:44;;;;;;;9.07;8.15;;;;;;;;;;4407413;32;318309;-81
2023/07/17 10:48:14;;;;;;;10.43;7.40;;;;;;;;;;4417798;32;316855;-81
2023/07/17 10:50:49;;;;;;;10.27;7.28;;;;;;;;;;4402704;32;350044;-81
2023/07/17 10:53:16;;;;;;;9.43;7.15;;;;;;;;;;4416782;32;317806;-80
2023/07/17 10:55:46;;;;;;;11.57;7.37;;;;;;;;;;4407377;32;317061;-80
2023/07/17 10:58:13;;;;;;;10.82;6.05;;;;;;;;;;4415941;32;317916;-80
2023/07/17 11:00:44;;;;;;;11.32;5.60;;;;;;;;;;4406989;32;318495;-81
2023/07/17 11:03:14;;;;;;;8.32;6.32;;;;;;;;;;4417669;32;317943;-82
2023/07/17 11:05:43;;;;;;;11.68;5.87;;;;;;;;;;4407257;32;317368;-81
2023/07/17 11:08:12;;;;;;;9.05;6.28;;;;;;;;;;4416027;32;317874;-80
2023/07/17 11:10:42;;;;;;;10.82;6.50;;;;;;;;;;4406699;32;317362;-81
2023/07/17 11:13:10;;;;;;;9.50;6.65;;;;;;;;;;4416324;32;317794;-81
2023/07/17 11:15:38;;;;;;;8.60;6.35;;;;;;;;;;4417275;32;317129;-80
2023/07/17 11:18:07;;;;;;;10.55;6.87;;;;;;;;;;4404023;32;415563;-81
2023/07/17 11:20:37;;;;;;;7.90;6.18;;;;;;;;;;4417487;32;318117;-80
2023/07/17 11:23:10;;;;;;;9.63;6.87;;;;;;;;;;4403716;32;416276;-81
2023/07/17 11:25:38;;;;;;;10.55;6.60;;;;;;;;;;4415414;32;317040;-81
2023/07/17 11:28:06;;;;;;;11.95;6.85;;;;;;;;;;4416780;32;318209;-85
2023/07/17 11:30:33;;;;;;;11.10;6.22;;;;;;;;;;4416459;32;317691;-84
2023/07/17 11:33:02;;;;;;;8.60;6.22;;;;;;;;;;4406269;32;318030;-84
2023/07/17 11:35:49;;;;;;;12.02;6.25;;;;;;;;;;4417334;32;317088;-79
2023/07/17 11:38:19;;;;;;;13.02;6.10;;;;;;;;;;4402088;32;417300;-78
2023/07/17 11:40:57;;;;;;;14.15;6.93;;;;;;;;;;4405891;32;318532;-79
2023/07/17 11:43:26;;;;;;;10.82;6.00;;;;;;;;;;4416877;32;317967;-79
2023/07/17 11:45:56;;;;;;;8.75;5.93;;;;;;;;;;4405827;32;318314;-79
2023/07/17 11:48:25;;;;;;;10.55;6.57;;;;;;;;;;4416528;32;317041;-78
2023/07/17 11:50:55;;;;;;;8.10;6.00;;;;;;;;;;4405962;32;318360;-79
2023/07/17 11:53:22;;;;;;;6.30;5.30;;;;;;;;;;4415569;32;316949;-79
2023/07/17 11:55:51;;;;;;;17.00;6.22;;;;;;;;;;4405694;32;317211;-79
2023/07/17 11:58:20;;;;;;;10.85;6.37;;;;;;;;;;4415498;32;318139;-79
2023/07/17 12:00:49;;;;;;;6.93;6.20;;;;;;;;;;4405575;32;318293;-79
2023/07/17 12:03:17;;;;;;;10.20;6.37;;;;;;;;;;4415846;32;316707;-79
2023/07/17 12:05:45;;;;;;;7.70;5.72;;;;;;;;;;4404831;32;318306;-79
2023/07/17 12:08:13;;;;;;;6.93;5.47;;;;;;;;;;4416647;32;316938;-81
2023/07/17 12:10:41;;;;;;;5.87;5.28;;;;;;;;;;4405783;32;317250;-79
2023/07/17 12:13:09;;;;;;;5.85;5.25;;;;;;;;;;4415336;32;316884;-80
2023/07/17 12:15:37;;;;;;;9.65;5.72;;;;;;;;;;4415242;32;317175;-79
2023/07/17 12:18:05;;;;;;;10.57;5.87;;;;;;;;;;4402464;32;416203;-80
2023/07/17 12:20:33;;;;;;;11.10;6.65;;;;;;;;;;4416185;32;318404;-79
2023/07/17 12:23:00;;;;;;;8.27;5.30;;;;;;;;;;4405286;32;326991;-85
2023/07/17 12:25:31;;;;;;;6.32;5.50;;;;;;;;;;4415037;32;317186;-79
2023/07/17 12:28:01;;;;;;;7.18;5.32;;;;;;;;;;4405398;32;317053;-79
2023/07/17 12:30:29;;;;;;;11.20;6.43;;;;;;;;;;4416140;32;317096;-79
2023/07/17 12:32:58;;;;;;;8.77;5.45;;;;;;;;;;4405882;32;317898;-79
2023/07/17 12:35:26;;;;;;;13.93;5.18;;;;;;;;;;4414666;32;337424;-79
2023/07/17 12:37:53;;;;;;;7.45;5.75;;;;;;;;;;4405586;32;318056;-79
2023/07/17 12:40:21;;;;;;;12.07;9.48;;;;;;;;;;4416781;32;317646;-79
2023/07/17 12:42:50;;;;;;;7.60;6.00;;;;;;;;;;4404517;32;317848;-79
2023/07/17 12:45:17;;;;;;;8.13;5.45;;;;;;;;;;4414224;32;358616;-81
2023/07/17 12:47:45;;;;;;;7.18;5.53;;;;;;;;;;4404928;32;316700;-84
2023/07/17 12:50:12;;;;;;;7.03;5.50;;;;;;;;;;4414407;32;345554;-79
2023/07/17 12:52:40;;;;;;;10.18;4.85;;;;;;;;;;4402068;32;317435;-85
2023/07/17 12:55:08;;;;;;;11.15;5.82;;;;;;;;;;4415411;32;318526;-83
2023/07/17 12:57:36;;;;;;;9.35;5.85;;;;;;;;;;4414537;32;317934;-80
2023/07/17 13:00:06;;;;;;;10.20;5.60;;;;;;;;;;4403070;32;416557;-82
2023/07/17 13:02:33;;;;;;;10.10;6.07;;;;;;;;;;4415436;32;317866;-80
2023/07/17 13:05:01;;;;;;;7.93;5.78;;;;;;;;;;4405014;32;318287;-79
2023/07/17 13:07:28;;;;;;;7.07;5.50;;;;;;;;;;4419286;32;316935;-85
2023/07/17 13:09:56;;;;;;;11.18;6.28;;;;;;;;;;4407995;32;317279;-81
2023/07/17 13:12:23;;;;;;;13.48;5.97;;;;;;;;;;4418828;32;317816;-81
2023/07/17 13:14:50;;;;;;;7.70;5.28;;;;;;;;;;4405870;32;318648;-80
2023/07/17 13:17:19;;;;;;;6.45;5.62;;;;;;;;;;4417846;32;316696;-84
2023/07/17 13:19:49;;;;;;;14.60;6.45;;;;;;;;;;4406270;32;317601;-81
2023/07/17 13:22:16;;;;;;;7.35;5.47;;;;;;;;;;4419156;32;317903;-86
2023/07/17 13:24:44;;;;;;;9.57;5.78;;;;;;;;;;4407833;32;317117;-80
2023/07/17 13:27:11;;;;;;;16.08;5.93;;;;;;;;;;4418229;32;316818;-81
2023/07/17 13:29:39;;;;;;;8.02;5.97;;;;;;;;;;4407364;32;318273;-80
2023/07/17 13:32:08;;;;;;;7.90;6.20;;;;;;;;;;4418875;32;316752;-80
2023/07/17 13:34:37;;;;;;;7.93;5.93;;;;;;;;;;4416335;32;316766;-80
2023/07/17 13:37:05;;;;;;;6.05;4.72;;;;;;;;;;4404453;32;415952;-80
2023/07/17 13:39:33;;;;;;;6.22;5.50;;;;;;;;;;4416422;32;316855;-80
2023/07/17 13:42:00;;;;;;;6.85;5.68;;;;;;;;;;4408254;32;317232;-86
2023/07/17 13:44:28;;;;;;;6.55;5.37;;;;;;;;;;4418755;32;317100;-80
2023/07/17 13:46:55;;;;;;;9.45;5.85;;;;;;;;;;4408043;32;317091;-82
2023/07/17 13:49:23;;;;;;;8.57;5.50;;;;;;;;;;4418956;32;316758;-81
2023/07/17 13:51:52;;;;;;;9.07;5.87;;;;;;;;;;4407756;32;317212;-80
2023/07/17 13:54:20;;;;;;;7.10;5.50;;;;;;;;;;4418862;32;317458;-80
2023/07/17 13:56:47;;;;;;;7.20;5.28;;;;;;;;;;4406339;32;317436;-87
2023/07/17 13:59:15;;;;;;;6.87;5.85;;;;;;;;;;4418375;32;317080;-79
2023/07/17 14:01:42;;;;;;;6.10;4.93;;;;;;;;;;4406621;32;317455;-80
2023/07/17 14:04:10;;;;;;;9.57;5.53;;;;;;;;;;4418055;32;317182;-79
2023/07/17 14:06:37;;;;;;;7.68;5.70;;;;;;;;;;4417604;32;317137;-80
2023/07/17 14:09:06;;;;;;;8.13;5.53;;;;;;;;;;4404297;32;416267;-79
2023/07/17 14:11:34;;;;;;;9.32;5.37;;;;;;;;;;4417199;32;317186;-80
2023/07/17 14:14:03;;;;;;;10.85;5.78;;;;;;;;;;4407089;32;316747;-79
2023/07/17 14:16:30;;;;;;;8.30;4.95;;;;;;;;;;4417728;32;318017;-79